Time;durP1;ratioP1;P1;durP2;ratioP2;P2;SDS_P1;SDS_P2;PMS_P1;PMS_P2;Temp;Humidity;BMP_temperature;BMP_pressure;BME280_temperature;BME280_humidity;BME280_pressure;Samples;Min_cycle;Max_cycle;Signal;HPM_P1;HPM_P2
2022/01/13 00:01:40;;;;;;;0.30;0.30;;;;;;;3.40;100.00;102928.53;5022554;28;20049;-81
2022/01/13 00:04:11;;;;;;;0.20;0.20;;;;;;;3.45;100.00;102936.91;5030042;28;20044;-81
2022/01/13 00:06:45;;;;;;;0.30;0.30;;;;;;;3.34;100.00;102926.53;5019255;28;20049;-82
2022/01/13 00:09:18;;;;;;;0.20;0.20;;;;;;;3.42;100.00;102941.81;5030316;28;20496;-80
2022/01/13 00:11:52;;;;;;;0.20;0.20;;;;;;;3.37;100.00;102950.41;5036173;28;20061;-80
2022/01/13 00:20:28;;;;;;;0.30;0.30;;;;;;;3.33;100.00;102933.78;5018475;28;20429;-82
2022/01/13 00:25:56;;;;;;;0.20;0.20;;;;;;;3.37;100.00;102945.88;5034817;28;20398;-81
2022/01/13 00:28:25;;;;;;;0.20;0.20;;;;;;;3.39;100.00;102943.81;5031488;28;20053;-81
2022/01/13 00:30:59;;;;;;;0.20;0.20;;;;;;;3.40;100.00;102945.50;5020605;28;20398;-81
2022/01/13 00:33:33;;;;;;;0.20;0.20;;;;;;;3.41;100.00;102949.03;5024609;28;20052;-81
2022/01/13 00:36:02;;;;;;;0.20;0.20;;;;;;;3.38;100.00;102957.47;5017952;28;20050;-81
2022/01/13 00:38:35;;;;;;;0.20;0.20;;;;;;;3.45;100.00;102955.75;5027605;28;20057;-81
2022/01/13 00:41:08;;;;;;;0.20;0.20;;;;;;;3.42;100.00;102961.47;5029623;28;20500;-81
2022/01/13 00:43:42;;;;;;;0.20;0.20;;;;;;;3.41;100.00;102962.50;5018849;28;20053;-81
2022/01/13 00:46:21;;;;;;;0.20;0.20;;;;;;;3.46;100.00;102960.13;5026996;28;20045;-81
2022/01/13 00:48:58;;;;;;;0.20;0.20;;;;;;;3.43;100.00;102960.47;5038927;28;20045;-81
2022/01/13 00:51:31;;;;;;;0.30;0.30;;;;;;;3.46;100.00;102970.88;5024703;28;20389;-81
2022/01/13 00:54:04;;;;;;;0.30;0.30;;;;;;;3.45;100.00;102965.69;5026054;28;20056;-81
2022/01/13 00:56:33;;;;;;;0.30;0.30;;;;;;;3.47;100.00;102975.25;5027653;28;20042;-81
2022/01/13 00:59:09;;;;;;;0.30;0.30;;;;;;;3.46;100.00;102968.19;5029032;28;20049;-82
2022/01/13 01:01:39;;;;;;;0.20;0.20;;;;;;;3.47;100.00;102964.50;5023270;28;20054;-81
2022/01/13 01:04:09;;;;;;;0.20;0.20;;;;;;;3.47;100.00;102944.81;5022313;28;20049;-81
2022/01/13 01:06:43;;;;;;;0.20;0.20;;;;;;;3.48;100.00;102947.34;5035468;28;20080;-81
2022/01/13 01:09:15;;;;;;;0.22;0.22;;;;;;;3.41;100.00;102938.25;5027370;28;20074;-81
2022/01/13 01:11:51;;;;;;;0.30;0.30;;;;;;;3.42;100.00;102925.66;5028977;28;20045;-82
2022/01/13 01:14:19;;;;;;;0.30;0.30;;;;;;;3.38;100.00;102912.56;5025399;28;20386;-81
2022/01/13 01:16:53;;;;;;;0.20;0.20;;;;;;;3.39;100.00;102930.38;5023128;28;20046;-81
2022/01/13 01:19:27;;;;;;;0.30;0.30;;;;;;;3.39;100.00;102924.16;5030979;28;20053;-81
2022/01/13 01:22:18;;;;;;;0.20;0.20;;;;;;;3.49;100.00;102930.16;5023621;28;20387;-81
2022/01/13 01:27:32;;;;;;;0.25;0.25;;;;;;;3.48;100.00;102922.25;5030278;28;20046;-81
2022/01/13 01:30:06;;;;;;;0.20;0.20;;;;;;;3.39;100.00;102919.59;5036366;28;20041;-81
2022/01/13 01:32:40;;;;;;;0.25;0.25;;;;;;;3.42;100.00;102929.19;5023598;28;20056;-82
2022/01/13 01:35:17;;;;;;;0.25;0.25;;;;;;;3.46;100.00;102922.44;5022242;28;20057;-81
2022/01/13 01:37:50;;;;;;;0.25;0.25;;;;;;;3.45;100.00;102922.63;5025840;28;20057;-81
2022/01/13 01:40:24;;;;;;;0.20;0.20;;;;;;;3.43;100.00;102912.03;5017779;28;20049;-81
2022/01/13 01:42:57;;;;;;;0.30;0.30;;;;;;;3.49;100.00;102911.31;5027816;28;20061;-81
2022/01/13 01:45:31;;;;;;;0.20;0.20;;;;;;;3.50;100.00;102909.47;5025179;28;20049;-81
2022/01/13 01:48:03;;;;;;;0.20;0.20;;;;;;;3.51;100.00;102903.91;5025560;28;20052;-81
2022/01/13 01:50:36;;;;;;;0.20;0.20;;;;;;;3.50;100.00;102909.47;5037981;28;20071;-81
2022/01/13 01:53:09;;;;;;;0.32;0.28;;;;;;;3.45;100.00;102907.28;5029540;28;20071;-82
2022/01/13 01:55:37;;;;;;;0.20;0.20;;;;;;;3.47;100.00;102913.34;5026916;28;20048;-81
2022/01/13 01:58:12;;;;;;;0.30;0.30;;;;;;;3.50;100.00;102906.78;5028462;28;20054;-80
2022/01/13 02:00:47;;;;;;;0.30;0.20;;;;;;;3.56;100.00;102906.91;5026778;28;20057;-81
2022/01/13 02:03:20;;;;;;;0.28;0.28;;;;;;;3.60;100.00;102903.84;5053020;28;20057;-81
2022/01/13 02:05:50;;;;;;;0.25;0.25;;;;;;;3.51;100.00;102893.13;5046329;28;20478;-81
2022/01/13 02:08:18;;;;;;;0.20;0.20;;;;;;;3.50;100.00;102871.78;5029246;28;20048;-82
2022/01/13 02:10:47;;;;;;;0.20;0.20;;;;;;;3.48;100.00;102860.34;5026458;28;20046;-81
2022/01/13 02:13:23;;;;;;;0.20;0.20;;;;;;;3.64;100.00;102880.94;5026987;28;20057;-81
2022/01/13 02:16:02;;;;;;;0.30;0.30;;;;;;;3.65;100.00;102886.13;5024095;28;20030;-81
2022/01/13 02:18:37;;;;;;;0.20;0.20;;;;;;;3.62;100.00;102891.03;5020116;28;20037;-82
2022/01/13 02:21:12;;;;;;;0.25;0.25;;;;;;;3.60;100.00;102885.84;5028078;28;20056;-81
2022/01/13 02:23:45;;;;;;;0.30;0.30;;;;;;;3.63;100.00;102879.25;5026929;28;20045;-80
2022/01/13 02:26:19;;;;;;;0.20;0.20;;;;;;;3.64;100.00;102879.06;5020190;28;20065;-81
2022/01/13 02:28:53;;;;;;;0.30;0.30;;;;;;;3.65;100.00;102877.25;5039839;28;20058;-81
2022/01/13 02:31:26;;;;;;;0.10;0.10;;;;;;;3.79;100.00;102881.81;5028741;28;20045;-81
2022/01/13 02:33:59;;;;;;;0.20;0.20;;;;;;;3.74;100.00;102881.53;5033420;28;20064;-81
2022/01/13 02:36:37;;;;;;;0.30;0.30;;;;;;;3.63;100.00;102873.88;5017025;28;20486;-81
2022/01/13 02:39:10;;;;;;;0.30;0.30;;;;;;;3.59;100.00;102859.94;5025330;28;20049;-81
2022/01/13 02:41:38;;;;;;;0.35;0.30;;;;;;;3.61;100.00;102865.16;5026413;28;20053;-80
2022/01/13 02:44:13;;;;;;;0.30;0.30;;;;;;;3.61;100.00;102859.75;5023383;28;20505;-82
2022/01/13 02:47:09;;;;;;;0.30;0.30;;;;;;;3.62;100.00;102846.13;5027309;28;20057;-81
2022/01/13 02:49:42;;;;;;;0.20;0.20;;;;;;;3.62;100.00;102856.88;5022514;28;20053;-81
2022/01/13 02:52:12;;;;;;;0.25;0.25;;;;;;;3.74;100.00;102850.06;5029535;28;20401;-81
2022/01/13 02:54:45;;;;;;;0.30;0.30;;;;;;;3.66;100.00;102839.34;5022995;28;20042;-80
2022/01/13 02:57:18;;;;;;;0.20;0.20;;;;;;;3.68;100.00;102837.31;5021301;28;20041;-82
2022/01/13 02:59:51;;;;;;;0.20;0.20;;;;;;;3.72;100.00;102849.38;5025506;28;20045;-81
2022/01/13 03:02:30;;;;;;;0.38;0.38;;;;;;;3.62;100.00;102845.25;5027073;28;20049;-81
2022/01/13 03:05:10;;;;;;;0.20;0.20;;;;;;;3.73;100.00;102852.94;5027149;28;20054;-81
2022/01/13 03:07:45;;;;;;;0.25;0.25;;;;;;;3.72;100.00;102851.25;5027742;28;20469;-81
2022/01/13 03:10:18;;;;;;;0.20;0.20;;;;;;;3.78;100.00;102847.81;5045451;28;20050;-82
2022/01/13 03:12:47;;;;;;;0.30;0.30;;;;;;;3.72;100.00;102843.19;5035217;28;20414;-81
2022/01/13 03:15:15;;;;;;;0.30;0.30;;;;;;;3.77;100.00;102848.00;5043539;28;20427;-81
2022/01/13 03:17:48;;;;;;;0.30;0.30;;;;;;;3.83;100.00;102850.00;5026383;28;20073;-81
2022/01/13 03:20:21;;;;;;;0.28;0.28;;;;;;;3.79;100.00;102837.91;5027805;28;20057;-81
2022/01/13 03:22:51;;;;;;;0.30;0.30;;;;;;;3.83;100.00;102837.34;5026937;28;20053;-81
2022/01/13 03:25:24;;;;;;;0.20;0.20;;;;;;;3.85;100.00;102843.41;5023366;28;20053;-81
2022/01/13 03:28:04;;;;;;;0.40;0.20;;;;;;;3.79;100.00;102849.50;5025717;28;20038;-81
2022/01/13 03:30:33;;;;;;;0.20;0.20;;;;;;;3.88;100.00;102859.22;5030450;28;20417;-81
2022/01/13 03:33:07;;;;;;;0.30;0.30;;;;;;;3.83;100.00;102858.06;5024105;28;20391;-81
2022/01/13 03:35:37;;;;;;;0.20;0.20;;;;;;;3.89;100.00;102862.72;5019005;28;20045;-82
2022/01/13 03:38:07;;;;;;;0.30;0.30;;;;;;;3.88;100.00;102867.28;5030829;28;20046;-81
2022/01/13 03:40:40;;;;;;;0.32;0.32;;;;;;;3.89;100.00;102876.19;5024667;28;20046;-81
2022/01/13 03:43:16;;;;;;;0.40;0.40;;;;;;;3.88;100.00;102869.97;5026117;28;20046;-81
2022/01/13 03:45:44;;;;;;;0.30;0.30;;;;;;;3.92;100.00;102867.75;5020180;28;20045;-81
2022/01/13 03:48:18;;;;;;;0.40;0.40;;;;;;;3.89;100.00;102863.59;5022608;28;20045;-81
2022/01/13 03:50:51;;;;;;;0.43;0.43;;;;;;;3.85;100.00;102850.63;5029764;28;20068;-81
2022/01/13 03:54:25;;;;;;;0.20;0.20;;;;;;;3.87;100.00;102849.44;5028906;28;20041;-81
2022/01/13 03:57:46;;;;;;;0.30;0.30;;;;;;;3.86;100.00;102836.97;5029505;28;20506;-81
2022/01/13 04:00:51;;;;;;;0.30;0.30;;;;;;;3.87;100.00;102829.75;5021269;28;20046;-81
2022/01/13 04:03:19;;;;;;;0.30;0.30;;;;;;;3.94;100.00;102822.63;5031285;28;20049;-82
2022/01/13 04:06:08;;;;;;;0.40;0.40;;;;;;;3.87;100.00;102824.38;5030154;28;20445;-81
2022/01/13 04:08:47;;;;;;;0.20;0.20;;;;;;;3.89;100.00;102819.63;5022204;28;20046;-81
2022/01/13 04:11:25;;;;;;;0.30;0.30;;;;;;;3.86;100.00;102820.00;5026071;28;20437;-81
2022/01/13 04:14:01;;;;;;;0.30;0.30;;;;;;;3.92;100.00;102824.66;5028635;28;20051;-81
2022/01/13 04:16:37;;;;;;;0.30;0.30;;;;;;;3.87;100.00;102822.50;5020380;28;20034;-81
2022/01/13 04:19:07;;;;;;;0.30;0.30;;;;;;;3.97;100.00;102816.84;5012575;28;20050;-81
2022/01/13 04:21:40;;;;;;;0.30;0.30;;;;;;;3.93;100.00;102807.47;5045597;28;20072;-81
2022/01/13 04:24:15;;;;;;;0.30;0.30;;;;;;;4.02;100.00;102810.91;5026680;28;20072;-80
2022/01/13 04:26:49;;;;;;;0.35;0.30;;;;;;;3.99;100.00;102813.97;5022817;28;20046;-81
2022/01/13 04:29:30;;;;;;;0.20;0.20;;;;;;;4.01;100.00;102806.56;5024610;28;20068;-82
2022/01/13 04:32:05;;;;;;;0.30;0.30;;;;;;;3.97;100.00;102802.56;5037211;28;20050;-81
2022/01/13 04:34:34;;;;;;;0.32;0.32;;;;;;;4.07;100.00;102808.50;5032636;28;20057;-81
2022/01/13 04:37:08;;;;;;;0.32;0.32;;;;;;;4.11;100.00;102804.44;5029203;28;20045;-81
2022/01/13 04:39:42;;;;;;;0.40;0.40;;;;;;;4.11;100.00;102817.06;5027784;28;20045;-81
2022/01/13 04:42:13;;;;;;;0.35;0.35;;;;;;;4.10;100.00;102805.44;5024569;28;20046;-81
2022/01/13 04:44:46;;;;;;;0.32;0.32;;;;;;;4.16;100.00;102806.59;5016955;28;20261;-81
2022/01/13 04:47:19;;;;;;;0.38;0.38;;;;;;;4.12;100.00;102794.50;5032922;28;20402;-81
2022/01/13 04:49:52;;;;;;;0.30;0.30;;;;;;;4.08;100.00;102794.84;5042806;28;20407;-81
2022/01/13 04:52:20;;;;;;;0.40;0.40;;;;;;;4.16;100.00;102793.13;5026633;28;20045;-81
2022/01/13 04:54:55;;;;;;;0.30;0.30;;;;;;;4.17;100.00;102792.94;5028869;28;20048;-81
2022/01/13 04:57:28;;;;;;;0.30;0.30;;;;;;;4.11;100.00;102796.34;5039005;28;20623;-81
2022/01/13 05:00:02;;;;;;;0.30;0.30;;;;;;;4.11;100.00;102793.66;5026162;28;20053;-81
2022/01/13 05:02:35;;;;;;;0.38;0.38;;;;;;;4.14;100.00;102803.22;5022871;28;20037;-81
2022/01/13 05:05:09;;;;;;;0.30;0.30;;;;;;;4.18;100.00;102791.06;5025609;28;20037;-81
2022/01/13 05:07:42;;;;;;;0.40;0.40;;;;;;;4.11;100.00;102773.97;5030985;28;20042;-82
2022/01/13 05:10:17;;;;;;;0.40;0.40;;;;;;;4.09;100.00;102790.31;5016660;28;20034;-81
2022/01/13 05:12:55;;;;;;;0.30;0.30;;;;;;;4.17;100.00;102775.91;5029162;28;20052;-82
2022/01/13 05:15:25;;;;;;;0.30;0.30;;;;;;;4.25;100.00;102779.38;5027752;28;20064;-81
2022/01/13 05:18:12;;;;;;;0.30;0.30;;;;;;;4.18;100.00;102786.50;5022693;28;20038;-81
2022/01/13 05:20:56;;;;;;;0.40;0.40;;;;;;;4.23;100.00;102789.47;5024832;28;20045;-82
2022/01/13 05:23:29;;;;;;;0.30;0.30;;;;;;;4.23;100.00;102781.38;5019229;28;20045;-82
2022/01/13 05:26:04;;;;;;;0.30;0.30;;;;;;;4.25;100.00;102800.06;5024694;28;20508;-81
2022/01/13 05:28:38;;;;;;;0.30;0.30;;;;;;;4.23;100.00;102789.47;5027963;28;20549;-81
2022/01/13 05:31:11;;;;;;;0.30;0.30;;;;;;;4.25;100.00;102783.91;5033307;28;20636;-81
2022/01/13 05:33:45;;;;;;;0.30;0.30;;;;;;;4.33;100.00;102788.38;5018850;28;20489;-82
2022/01/13 05:36:18;;;;;;;0.30;0.30;;;;;;;4.22;100.00;102784.28;5023431;28;20045;-81
2022/01/13 05:38:51;;;;;;;0.30;0.30;;;;;;;4.20;100.00;102783.63;5023297;28;20386;-80
2022/01/13 05:41:25;;;;;;;0.30;0.30;;;;;;;4.21;100.00;102786.16;5024536;28;20061;-82
2022/01/13 05:43:54;;;;;;;0.30;0.30;;;;;;;4.06;100.00;102778.03;5024608;28;20057;-82
2022/01/13 05:46:22;;;;;;;0.30;0.30;;;;;;;4.15;100.00;102784.19;5018368;28;20049;-81
2022/01/13 05:48:50;;;;;;;0.30;0.30;;;;;;;4.21;100.00;102787.97;5026956;28;20029;-81
2022/01/13 05:51:23;;;;;;;0.30;0.30;;;;;;;4.20;100.00;102779.06;5021328;28;20049;-81
2022/01/13 05:53:52;;;;;;;0.30;0.30;;;;;;;4.17;100.00;102781.28;5024203;28;20045;-81
2022/01/13 05:56:26;;;;;;;0.30;0.30;;;;;;;4.17;100.00;102778.59;5022406;28;20049;-81
2022/01/13 05:58:54;;;;;;;0.20;0.20;;;;;;;4.17;100.00;102781.28;5014317;28;20066;-82
2022/01/13 06:01:22;;;;;;;0.30;0.30;;;;;;;4.16;100.00;102783.16;5017183;28;20085;-82
2022/01/13 06:03:56;;;;;;;0.20;0.20;;;;;;;4.13;100.00;102775.47;5023986;28;20057;-81
2022/01/13 06:06:29;;;;;;;0.22;0.22;;;;;;;4.18;100.00;102781.09;5027781;28;20088;-81
2022/01/13 06:09:02;;;;;;;0.30;0.30;;;;;;;4.13;100.00;102778.16;5022204;28;20045;-80
2022/01/13 06:11:39;;;;;;;0.30;0.30;;;;;;;4.09;100.00;102783.06;5029158;28;20429;-81
2022/01/13 06:14:08;;;;;;;0.28;0.28;;;;;;;4.15;100.00;102777.97;5022060;28;20049;-80
2022/01/13 06:16:41;;;;;;;0.28;0.28;;;;;;;4.17;100.00;102787.53;5019941;28;20041;-81
2022/01/13 06:19:14;;;;;;;0.28;0.28;;;;;;;4.23;100.00;102781.38;5027807;28;20060;-80
2022/01/13 06:21:42;;;;;;;0.30;0.30;;;;;;;4.22;100.00;102777.00;5027787;28;20050;-80
2022/01/13 06:24:16;;;;;;;0.40;0.40;;;;;;;4.26;100.00;102775.63;5027886;28;20045;-80
2022/01/13 06:26:50;;;;;;;0.30;0.30;;;;;;;4.32;100.00;102787.50;5032643;28;20057;-80
2022/01/13 06:29:23;;;;;;;0.30;0.30;;;;;;;4.24;100.00;102783.06;5019305;28;20502;-82
2022/01/13 06:31:52;;;;;;;0.20;0.20;;;;;;;4.32;100.00;102775.91;5016033;28;20056;-81
2022/01/13 06:34:25;;;;;;;0.30;0.30;;;;;;;4.30;100.00;102778.78;5025514;28;20060;-81
2022/01/13 06:36:58;;;;;;;0.30;0.30;;;;;;;4.34;100.00;102788.19;5028342;28;20417;-81
2022/01/13 06:39:31;;;;;;;0.30;0.30;;;;;;;4.32;100.00;102803.69;5034100;28;20065;-81
2022/01/13 06:42:07;;;;;;;0.30;0.30;;;;;;;4.33;100.00;102799.16;5024887;28;20141;-81
2022/01/13 06:44:41;;;;;;;0.30;0.30;;;;;;;4.45;100.00;102796.81;5027638;28;20050;-81
2022/01/13 06:47:14;;;;;;;0.22;0.22;;;;;;;4.38;100.00;102802.13;5041401;28;20061;-81
2022/01/13 06:49:47;;;;;;;0.30;0.30;;;;;;;4.39;100.00;102804.66;5030053;28;20034;-81
2022/01/13 06:52:20;;;;;;;0.30;0.30;;;;;;;4.48;100.00;102808.06;5028981;28;20068;-81
2022/01/13 06:54:53;;;;;;;0.20;0.20;;;;;;;4.34;100.00;102790.88;5024485;28;20395;-81
2022/01/13 06:57:30;;;;;;;0.20;0.20;;;;;;;4.41;100.00;102796.38;5028390;28;20049;-80
2022/01/13 07:00:05;;;;;;;0.30;0.30;;;;;;;4.50;100.00;102805.19;5026740;28;20037;-81
2022/01/13 07:02:34;;;;;;;0.30;0.30;;;;;;;4.42;100.00;102792.66;5027867;28;20053;-81
2022/01/13 07:05:08;;;;;;;0.30;0.30;;;;;;;4.39;100.00;102799.25;5027774;28;20045;-80
2022/01/13 07:07:39;;;;;;;0.30;0.30;;;;;;;4.49;100.00;102792.72;5024347;28;20053;-81
2022/01/13 07:10:13;;;;;;;0.30;0.30;;;;;;;4.48;100.00;102791.91;5023691;28;20037;-81
2022/01/13 07:12:48;;;;;;;0.28;0.28;;;;;;;4.53;100.00;102802.97;5018645;28;20060;-81
2022/01/13 07:15:22;;;;;;;0.30;0.30;;;;;;;4.48;100.00;102801.84;5019259;28;20049;-81
2022/01/13 07:17:55;;;;;;;0.20;0.20;;;;;;;4.49;100.00;102792.72;5012097;28;20057;-81
2022/01/13 07:20:24;;;;;;;0.30;0.30;;;;;;;4.53;100.00;102802.97;5031135;28;20042;-81
2022/01/13 07:22:52;;;;;;;0.20;0.20;;;;;;;4.52;100.00;102801.28;5030657;28;20053;-81
2022/01/13 07:25:21;;;;;;;0.20;0.20;;;;;;;4.56;100.00;102807.16;5026369;28;20069;-80
2022/01/13 07:27:55;;;;;;;0.30;0.30;;;;;;;4.49;100.00;102823.22;5016515;28;20042;-81
2022/01/13 07:30:29;;;;;;;0.30;0.30;;;;;;;4.52;100.00;102822.03;5023471;28;20046;-81
2022/01/13 07:33:02;;;;;;;0.20;0.20;;;;;;;4.50;100.00;102830.31;5013653;28;20042;-81
2022/01/13 07:35:30;;;;;;;0.30;0.30;;;;;;;4.51;100.00;102823.88;5021620;28;20716;-80
2022/01/13 07:38:04;;;;;;;0.25;0.25;;;;;;;4.57;100.00;102820.44;5039916;28;20053;-81
2022/01/13 07:40:37;;;;;;;0.30;0.30;;;;;;;4.60;100.00;102819.25;5019704;28;20050;-80
2022/01/13 07:43:11;;;;;;;0.30;0.30;;;;;;;4.56;100.00;102818.75;5025846;28;20056;-81
2022/01/13 07:45:40;;;;;;;0.25;0.25;;;;;;;4.58;100.00;102827.53;5020521;28;20050;-81
2022/01/13 07:48:13;;;;;;;0.30;0.30;;;;;;;4.64;100.00;102827.78;5026301;28;20698;-80
2022/01/13 07:50:41;;;;;;;0.22;0.22;;;;;;;4.63;100.00;102828.78;5029362;28;20425;-81
2022/01/13 07:53:15;;;;;;;0.30;0.30;;;;;;;4.59;100.00;102834.56;5023638;28;20061;-80
2022/01/13 07:55:49;;;;;;;0.30;0.30;;;;;;;4.66;100.00;102844.63;5020324;28;20056;-79
2022/01/13 07:58:18;;;;;;;0.30;0.30;;;;;;;4.60;100.00;102838.94;5029776;28;20045;-83
2022/01/13 08:00:52;;;;;;;0.28;0.28;;;;;;;4.62;100.00;102832.53;5026098;28;20054;-81
2022/01/13 08:03:25;;;;;;;0.30;0.30;;;;;;;4.71;100.00;102850.28;5023848;28;20044;-81
2022/01/13 08:06:00;;;;;;;0.20;0.20;;;;;;;4.63;100.00;102850.38;5029549;28;20044;-81
2022/01/13 08:08:35;;;;;;;0.20;0.20;;;;;;;4.70;100.00;102851.31;5024560;28;20379;-80
2022/01/13 08:11:09;;;;;;;0.30;0.30;;;;;;;4.68;100.00;102843.41;5031413;28;20042;-82
2022/01/13 08:13:45;;;;;;;0.30;0.30;;;;;;;4.67;100.00;102838.19;5023503;28;20049;-80
2022/01/13 08:16:19;;;;;;;0.20;0.20;;;;;;;4.73;100.00;102842.84;5026803;28;20056;-80
2022/01/13 08:21:43;;;;;;;0.20;0.20;;;;;;;4.73;100.00;102849.06;5022189;28;20049;-80
2022/01/13 08:24:11;;;;;;;0.20;0.20;;;;;;;4.75;100.00;102840.78;5019706;28;20049;-81
2022/01/13 08:26:40;;;;;;;0.20;0.20;;;;;;;4.80;100.00;102841.06;5026858;28;20068;-81
2022/01/13 08:29:15;;;;;;;0.20;0.20;;;;;;;4.85;100.00;102837.81;5013571;28;20057;-80
2022/01/13 08:31:48;;;;;;;0.20;0.20;;;;;;;4.84;100.00;102850.44;5017639;28;20073;-80
2022/01/13 08:34:21;;;;;;;0.20;0.20;;;;;;;4.76;100.00;102850.56;5002284;28;20851;-81
2022/01/13 08:36:55;;;;;;;0.20;0.20;;;;;;;4.87;100.00;102849.25;4997978;28;20057;-80
2022/01/13 08:39:28;;;;;;;0.25;0.25;;;;;;;4.83;100.00;102856.03;4991189;28;20053;-80
2022/01/13 08:42:01;;;;;;;0.30;0.30;;;;;;;4.82;100.00;102863.31;4996387;28;20046;-81
2022/01/13 08:44:36;;;;;;;0.20;0.20;;;;;;;4.81;100.00;102861.63;4988308;28;20497;-81
2022/01/13 08:47:05;;;;;;;0.25;0.25;;;;;;;4.83;100.00;102864.97;4994038;28;20049;-81
2022/01/13 08:49:38;;;;;;;0.20;0.20;;;;;;;4.84;100.00;102861.25;4995607;28;20049;-80
2022/01/13 08:52:07;;;;;;;0.20;0.20;;;;;;;4.87;100.00;102862.75;5000227;28;20088;-80
2022/01/13 08:54:41;;;;;;;0.20;0.20;;;;;;;4.82;100.00;102846.25;4994064;28;20405;-80
2022/01/13 08:57:15;;;;;;;0.20;0.20;;;;;;;4.82;100.00;102846.25;5011100;28;20064;-80
2022/01/13 08:59:50;;;;;;;0.30;0.30;;;;;;;4.83;100.00;102840.69;4995139;28;20065;-80
2022/01/13 09:02:18;;;;;;;0.20;0.20;;;;;;;4.79;100.00;102830.47;4997022;28;20058;-80
2022/01/13 09:04:46;;;;;;;0.20;0.20;;;;;;;4.88;100.00;102848.22;4992636;28;20060;-80
2022/01/13 09:07:19;;;;;;;0.20;0.20;;;;;;;4.73;100.00;102832.06;4991079;28;20410;-81
2022/01/13 09:09:52;;;;;;;0.20;0.20;;;;;;;4.89;100.00;102837.25;4992170;28;20073;-80
2022/01/13 09:12:21;;;;;;;0.20;0.20;;;;;;;4.86;100.00;102844.88;4989580;28;20054;-80
2022/01/13 09:15:01;;;;;;;0.20;0.20;;;;;;;4.79;100.00;102833.97;4988976;28;20053;-81
2022/01/13 09:17:34;;;;;;;0.20;0.20;;;;;;;4.76;100.00;102821.75;5013562;28;20064;-80
2022/01/13 09:20:08;;;;;;;0.20;0.20;;;;;;;4.77;100.00;102831.47;4990622;28;20069;-80
2022/01/13 09:22:37;;;;;;;0.20;0.20;;;;;;;4.79;100.00;102820.50;4990857;28;20053;-80
2022/01/13 09:25:11;;;;;;;0.20;0.20;;;;;;;4.70;100.00;102817.06;4992821;28;20046;-80
2022/01/13 09:27:44;;;;;;;0.30;0.30;;;;;;;4.78;100.00;102813.44;4995960;28;20062;-80
2022/01/13 09:30:22;;;;;;;0.30;0.30;;;;;;;4.74;100.00;102802.19;4988283;28;20053;-80
2022/01/13 09:32:55;;;;;;;0.20;0.20;;;;;;;4.80;100.00;102805.16;4994760;28;20045;-80
2022/01/13 09:35:29;;;;;;;0.30;0.30;;;;;;;4.75;100.00;102797.63;5008261;28;20062;-81
2022/01/13 09:38:03;;;;;;;0.20;0.20;;;;;;;4.85;100.00;102810.84;4989284;28;20054;-81
2022/01/13 09:40:36;;;;;;;0.20;0.20;;;;;;;4.82;100.00;102803.09;4988682;28;20050;-80
2022/01/13 09:43:10;;;;;;;0.20;0.20;;;;;;;4.75;100.00;102803.00;4993590;28;20061;-80
2022/01/13 09:45:40;;;;;;;0.20;0.20;;;;;;;4.67;100.00;102795.03;4994787;28;20849;-79
2022/01/13 09:48:14;;;;;;;0.20;0.20;;;;;;;4.62;100.00;102775.91;4997524;28;20066;-81
2022/01/13 09:50:45;;;;;;;0.20;0.20;;;;;;;4.70;100.00;102802.75;5000095;28;20061;-80
2022/01/13 09:53:19;;;;;;;0.20;0.20;;;;;;;4.64;100.00;102807.06;4997277;28;20050;-80
2022/01/13 09:55:53;;;;;;;0.30;0.30;;;;;;;4.67;100.00;102811.22;4998025;28;20740;-81
2022/01/13 09:58:26;;;;;;;0.20;0.20;;;;;;;4.69;100.00;102807.31;5011896;28;20062;-83
2022/01/13 10:01:01;;;;;;;0.20;0.20;;;;;;;4.66;100.00;102809.56;4991213;28;20141;-82
2022/01/13 10:03:30;;;;;;;0.30;0.30;;;;;;;4.56;100.00;102810.69;4996006;28;20049;-81
2022/01/13 10:06:09;;;;;;;0.30;0.30;;;;;;;4.62;100.00;102809.09;5010392;28;20062;-81
2022/01/13 10:08:46;;;;;;;0.20;0.20;;;;;;;4.73;100.00;102808.59;4999203;28;20053;-81
2022/01/13 10:11:29;;;;;;;0.20;0.20;;;;;;;4.58;100.00;102802.41;4994814;28;20053;-82
2022/01/13 10:14:11;;;;;;;0.20;0.20;;;;;;;4.59;100.00;102812.16;5000130;28;20689;-82
2022/01/13 10:16:47;;;;;;;0.20;0.20;;;;;;;4.56;100.00;102810.69;4994190;28;20057;-81
2022/01/13 10:19:32;;;;;;;0.20;0.20;;;;;;;4.74;100.00;102820.25;4998616;28;20866;-81
2022/01/13 10:22:08;;;;;;;0.20;0.20;;;;;;;4.53;100.00;102808.34;4996451;28;20045;-81
2022/01/13 10:24:43;;;;;;;0.20;0.20;;;;;;;4.47;100.00;102817.19;4994161;28;20065;-81
2022/01/13 10:27:18;;;;;;;0.20;0.20;;;;;;;4.53;100.00;102810.19;5014126;28;20586;-81
2022/01/13 10:29:53;;;;;;;0.20;0.20;;;;;;;4.52;100.00;102809.38;4998875;28;20041;-82
2022/01/13 10:32:34;;;;;;;0.20;0.20;;;;;;;4.55;100.00;102818.94;5008930;28;20080;-80
2022/01/13 10:35:10;;;;;;;0.22;0.22;;;;;;;4.49;100.00;102806.19;4994906;28;20053;-80
2022/01/13 10:37:45;;;;;;;0.20;0.20;;;;;;;4.46;100.00;102818.22;4995047;28;20050;-80
2022/01/13 10:40:23;;;;;;;0.10;0.10;;;;;;;4.42;100.00;102819.63;5011036;28;20068;-80
2022/01/13 10:43:09;;;;;;;0.20;0.20;;;;;;;4.48;100.00;102826.13;5000563;28;20042;-81
2022/01/13 10:45:46;;;;;;;0.30;0.30;;;;;;;4.45;100.00;102813.84;4993193;28;20057;-81
2022/01/13 10:48:19;;;;;;;0.20;0.20;;;;;;;4.47;100.00;102816.34;4990909;28;20053;-80
2022/01/13 10:50:55;;;;;;;0.20;0.20;;;;;;;4.49;100.00;102817.00;4998896;28;20054;-81
2022/01/13 10:53:30;;;;;;;0.20;0.20;;;;;;;4.40;100.00;102803.59;5003201;28;20105;-81
2022/01/13 10:56:05;;;;;;;0.25;0.25;;;;;;;4.51;100.00;102798.78;5009906;28;20072;-81
2022/01/13 10:58:41;;;;;;;0.20;0.20;;;;;;;4.44;100.00;102793.28;4995956;28;20069;-80
2022/01/13 11:01:12;;;;;;;0.20;0.20;;;;;;;4.47;100.00;102792.09;4994620;28;20457;-81
2022/01/13 11:03:47;;;;;;;0.20;0.20;;;;;;;4.53;100.00;102791.31;4999879;28;20041;-81
2022/01/13 11:06:16;;;;;;;0.20;0.20;;;;;;;4.52;100.00;102768.94;5000938;28;20054;-80
2022/01/13 11:08:50;;;;;;;0.20;0.20;;;;;;;4.56;100.00;102781.00;4992109;28;20045;-80
2022/01/13 11:11:27;;;;;;;0.20;0.20;;;;;;;4.67;100.00;102789.63;4990251;28;20104;-80
2022/01/13 11:14:09;;;;;;;0.20;0.20;;;;;;;4.62;100.00;102790.22;4993468;28;20080;-80
2022/01/13 11:16:42;;;;;;;0.20;0.20;;;;;;;4.55;100.00;102770.41;4988768;28;20064;-81
2022/01/13 11:19:20;;;;;;;0.20;0.20;;;;;;;4.63;100.00;102783.78;4995249;28;20053;-81
2022/01/13 11:21:53;;;;;;;0.20;0.20;;;;;;;4.64;100.00;102796.25;4997561;28;20057;-81
2022/01/13 11:24:27;;;;;;;0.20;0.20;;;;;;;4.57;100.00;102782.69;5017602;28;20057;-80
2022/01/13 11:27:00;;;;;;;0.20;0.20;;;;;;;4.77;100.00;102792.88;4997288;28;20050;-80
2022/01/13 11:29:34;;;;;;;0.30;0.30;;;;;;;4.67;100.00;102787.78;4995222;28;20061;-80
2022/01/13 11:32:03;;;;;;;0.20;0.20;;;;;;;4.63;100.00;102780.25;4992185;28;20064;-81
2022/01/13 11:34:33;;;;;;;0.20;0.20;;;;;;;4.63;100.00;102778.41;4987977;28;20053;-82
2022/01/13 11:37:07;;;;;;;0.20;0.20;;;;;;;4.65;100.00;102784.44;4998561;28;20053;-81
2022/01/13 11:39:42;;;;;;;0.20;0.20;;;;;;;4.64;100.00;102774.69;5011808;28;20058;-82
2022/01/13 11:42:11;;;;;;;0.20;0.20;;;;;;;4.71;100.00;102777.44;4989022;28;20057;-82
2022/01/13 11:44:45;;;;;;;0.20;0.20;;;;;;;4.63;100.00;102773.00;4988204;28;20057;-82
2022/01/13 11:47:22;;;;;;;0.20;0.20;;;;;;;4.69;100.00;102777.63;4996260;28;20572;-81
2022/01/13 11:50:09;;;;;;;0.30;0.30;;;;;;;4.55;100.00;102773.94;4993136;28;20049;-81
2022/01/13 11:52:44;;;;;;;0.20;0.20;;;;;;;4.55;100.00;102781.19;4987692;28;20060;-82
2022/01/13 11:55:23;;;;;;;0.20;0.20;;;;;;;4.60;100.00;102768.00;4990148;28;20045;-82
2022/01/13 11:58:11;;;;;;;0.20;0.20;;;;;;;4.55;100.00;102765.03;4993444;28;20072;-81
2022/01/13 12:00:40;;;;;;;0.20;0.20;;;;;;;4.57;100.00;102771.06;4994342;28;20045;-82
2022/01/13 12:03:23;;;;;;;0.20;0.20;;;;;;;4.51;100.00;102771.81;4992985;28;20054;-81
2022/01/13 12:05:53;;;;;;;0.20;0.20;;;;;;;4.55;100.00;102759.63;4997840;28;20085;-82
2022/01/13 12:08:42;;;;;;;0.20;0.20;;;;;;;4.50;100.00;102757.50;4992463;28;20136;-81
2022/01/13 12:11:40;;;;;;;0.20;0.20;;;;;;;4.52;100.00;102736.56;4991990;28;20822;-81